Four Points, OH

6:52 PM EST on December 04, 2016 (GMT -0500)
OHDOT | | Change Station

Elev 620 ft 41.55 °N, 81.58 °W | Updated 37 minutes ago

Overcast
Overcast
41.0 °F
Feels Like 41.0 °F
N
2.0
Wind Variable Wind from East
Gusts 6.0 mph

Today
High -- | Low -- °F
--% Chance of Precip.
Yesterday
High -- | Low -- °F
Precip. -- in
Pressure 29.94 in
Visibility 10.0 miles
Clouds Overcast 10000 ft
Dew Point 36.0 °F
Humidity 83%
Rainfall in
Snow Depth Not available.
7:36 AM 4:56 PM
Waxing Crescent, 26% visible
METAR KCGF 042345Z 15010KT 10SM OVC100 05/00 A2994
Pressure 29.94 in
Visibility 10.0 miles
Clouds Overcast 10000 ft
Dew Point 36.0 °F
Humidity 83%
Rainfall in
Snow Depth Not available.
7:36 AM 4:56 PM
Waxing Crescent, 26% visible
METAR KCGF 042345Z 15010KT 10SM OVC100 05/00 A2994

10-Day Weather Forecast

Almanac

Astronomy

Dec. 04, 2016 Rise Set
Actual Time
Civil Twilight
Nautical Twilight
Astronomical Twilight
Moon
Length of Visible Light
Length of Day
Tomorrow will be .
, % of the Moon is Illuminated

Today's Extremes

State Highs State Lows

Community

WunderPhotos

Upload Photos

1,955,703 photos uploaded!

WunderBlog® & News

Nearby

Air Quality

  Air Quality AQ Index Pollutant
Not available.

Snow Depth

Station Depth Elevation

Earthquake Activity

City Distance Mag. Time & Date
Minimum magnitude displayed is 2.5.

Coastal Water Temperatures

Place Temperature

Stations

Nearby Weather Stations

Station Location Temp. Windchill Dew Point Humidity Wind Precip. Elev Updated Type
                   

Watches & Warnings

There are currently no watches in effect.